Newberry Springs, CA (92365)

12:57 AM PDT on August 04, 2015 (GMT -0700)
Riverside Road | | Change Station
CLOSE
Current Station
Personal Weather Station
Location: Newberry Springs, CA
Elevation: 1814 ft
Nearby Weather Stations

Elev 1814 ft 34.91 °N, 116.66 °W | Updated 6 seconds ago

Clear
Clear
82.9 °F
Feels Like 81 °F
N
7.0
Wind Variable Wind from South
Gusts 10.0 mph

Today
High -- | Low -- °F
--% Chance of Precip.
Yesterday
High -- | Low -- °F
Precip. -- in
5:58 AM 7:46 PM
Waning Gibbous, 80% visible
Pressure 29.78 in
Visibility 10.0 miles
Clouds Clear
Heat Index 81 °F
Dew Point 44 °F
Humidity 25%
Rainfall 0.00 in
Snow Depth Not available.
UV 0 out of 12
Pollen 4.20 out of 12
Air Quality Not available.
Flu Activity Not available.
METAR KDAG 040750Z AUTO 25015KT 10SM CLR 29/01 A2987 RMK AO2 SLP082 T02940006 404170233

More Conditions Fewer Conditions

Pressure 29.78 in
Visibility 10.0 miles
Clouds Clear
Heat Index 81 °F
Dew Point 44 °F
Humidity 25%
Rainfall 0.00 in
Snow Depth Not available.
UV 0 out of 12
Pollen 4.20 out of 12
Air Quality Not available.
Flu Activity Not available.
METAR KDAG 040750Z AUTO 25015KT 10SM CLR 29/01 A2987 RMK AO2 SLP082 T02940006 404170233

More Conditions Fewer Conditions

10-Day Weather Forecast

×

Almanac

Astronomy

Aug. 04, 2015 Rise Set
Actual Time
Civil Twilight
Nautical Twilight
Astronomical Twilight
Moon
Length of Visible Light
Length of Day
Tomorrow will be .
, % of the Moon is Illuminated

Today's Extremes

State Highs State Lows

Community

WunderPhotos

Upload Photos

1,843,877 photos uploaded!

WunderBlogs® & News

Nearby

Air Quality

  Air Quality AQ Index Pollutant
Not available.

Snow Depth

Station Depth Elevation

Earthquake Activity

City Distance Mag. Time & Date
Minimum magnitude displayed is 2.5.

Coastal Water Temperatures

Place Temperature

Stations

Nearby Weather Stations

Station Location Temp. Windchill Dew Point Humidity Wind Precip. Elev Updated Type